ADDS METAR Data INFO
IDs: Format: Raw Decoded Include TAF

Data at: 0939 UTC 25 Jun 2018

KFET 250935Z AUTO 10011KT 10SM BKN022 20/18 A2993 RMK AO2 T02030181
KFET 250915Z AUTO 09008KT 10SM OVC022 21/18 A2993 RMK AO2 T02050182
KFET 250855Z AUTO 08009G14KT 10SM OVC024 21/19 A2994 RMK AO2 LTG DSNT W AND NW T02060185
KFET 250835Z AUTO 08010KT 10SM VCTS SCT011 OVC026 21/19 A2996 RMK AO2 LTG DSNT W T02050190
KFET 250815Z AUTO 06006KT 10SM SCT011 BKN026 20/19 A2996 RMK AO2 LTG DSNT W T02010188
KFET 250755Z AUTO 05009KT 10SM SCT028 20/19 A2994 RMK AO2 T02000186
KFET 250735Z AUTO 06008KT 10SM BKN030 BKN038 BKN055 20/19 A2994 RMK AO2 LTG DSNT N AND NW T02010187
KFET 250715Z AUTO 06007KT 10SM OVC030 20/19 A2996 RMK AO2 LTG DSNT NW T02010186
KFET 250655Z AUTO 04007KT 10SM OVC030 20/19 A2997 RMK AO2 LTG DSNT N AND NW T02010185
KFET 250635Z AUTO 03009G14KT 10SM SCT008 OVC030 20/19 A2997 RMK AO2 LTG DSNT W AND NW T02010186
KFET 250615Z AUTO 01009KT 10SM SCT008 OVC028 21/20 A2996 RMK AO2 LTG DSNT N AND NW T02140197
KFET 250555Z AUTO 01009KT 10SM -RA SCT028 BKN070 OVC120 22/19 A2997 RMK AO2 LTG DSNT W THRU N T02180190
KFET 250535Z AUTO 09004KT 10SM -RA SCT100 BKN120 22/19 A2996 RMK AO2 LTG DSNT N AND NW T02220185
KFET 250515Z AUTO 12008KT 10SM -RA SCT100 BKN120 A2995 RMK AO2 LTG DSNT W THRU NE
KFET 250455Z AUTO 12007KT 10SM SCT120 A2995 RMK AO2 LTG DSNT W THRU N
KFET 250435Z AUTO 13008KT 10SM VCTS SCT070 SCT080 BKN120 A2995 RMK AO2 LTG DSNT W THRU N
KFET 250415Z AUTO 13012G16KT 10SM VCTS BKN120 A2994 RMK AO2 LTG DSNT ALQS
KFET 250355Z AUTO 13015KT 10SM -RA SCT120 A2994 RMK AO2 LTG DSNT N
KFET 250335Z AUTO 13016G21KT 10SM CLR A2994 RMK AO2 LTG DSNT SW THRU N
KFET 250315Z AUTO 13016G20KT 10SM CLR 24/19 A2992 RMK AO2 LTG DSNT SW THRU N T02400192
KFET 250255Z AUTO 12013G18KT 10SM CLR 25/20 A2991 RMK AO2 LTG DSNT N AND NW T02500198
KFET 250235Z AUTO 14010KT 10SM CLR 26/19 A2991 RMK AO2 LTG DSNT N AND W T02550192
KFET 250215Z AUTO 14008KT 10SM CLR 26/19 A2990 RMK AO2 LTG DSNT N T02580185
KFET 250155Z AUTO 13009KT 10SM SCT050 26/18 A2989 RMK AO2 LTG DSNT N AND NE T02580181
KFET 250135Z AUTO 15005KT 10SM SCT050 26/18 A2989 RMK AO2 LTG DSNT N T02620180
KFET 250115Z AUTO 14005KT 10SM CLR 26/18 A2989 RMK AO2 LTG DSNT N T02620180
KFET 250055Z AUTO 14009KT 10SM VCTS CLR 27/18 A2986 RMK AO2 LTG DSNT N AND SW T02670180
KFET 250035Z AUTO 14010KT 10SM CLR 27/19 A2984 RMK AO2 LTG DSNT W THRU N T02710188
KFET 250015Z AUTO 14013KT 10SM CLR 28/21 A2984 RMK AO2 LTG DSNT W THRU E T02800207
KFET 242355Z AUTO 15014G19KT 10SM CLR 29/21 A2982 RMK AO2 LTG DSNT N AND NW T02890205 10310 20288
KFET 242335Z AUTO 14009G22KT 10SM VCTS CLR 30/20 A2983 RMK AO2 LTG DSNT N AND NE T03000197
KFET 242315Z AUTO 16011G16KT 10SM SCT040 30/21 A2982 RMK AO2 LTG DSNT N T03020211
KFET 242255Z AUTO 15011G18KT 10SM SCT040 30/21 A2982 RMK AO2 T03040208
KFET 242235Z AUTO 15011G17KT 10SM SCT040 SCT047 31/21 A2983 RMK AO2 T03070210
KFET 242215Z AUTO 15010KT 10SM SCT040 SCT046 30/20 A2984 RMK AO2 T03040204
KFET 242155Z AUTO 14009G14KT 10SM SCT038 SCT043 31/22 A2984 RMK AO2 T03070215
KFET 242135Z AUTO 16008KT 10SM CLR 30/21 A2984 RMK AO2 LTG DSNT NW T02950208
KFET 242115Z AUTO 13008KT 10SM SCT035 30/21 A2983 RMK AO2 T02990206
KFET 242055Z AUTO 15010G14KT 10SM SCT037 30/22 A2983 RMK AO2 LTG DSNT NW T03010216
KFET 242035Z AUTO 15010G15KT 10SM CLR 30/21 A2985 RMK AO2 LTG DSNT W T03030214
KFET 242015Z AUTO 14011G15KT 10SM CLR 31/21 A2983 RMK AO2 T03050212
KFET 241955Z AUTO 13009KT 10SM CLR 30/21 A2984 RMK AO2 LTG DSNT W T03010212
KFET 241935Z AUTO 13008G14KT 10SM CLR 30/20 A2984 RMK AO2 T03030204
KFET 241915Z AUTO 14011KT 10SM CLR 30/21 A2985 RMK AO2 T03000207
KFET 241855Z AUTO 14008KT 10SM CLR 30/21 A2985 RMK AO2 T02990210
KFET 241835Z AUTO 10006KT 10SM CLR 30/22 A2985 RMK AO2 T02950217
KFET 241815Z AUTO 13005KT 10SM SCT120 30/21 A2985 RMK AO2 T02950213
KFET 241755Z AUTO 14005KT 10SM BKN120 29/22 A2986 RMK AO2 T02870215 10287 20206
KFET 241735Z AUTO 00000KT 10SM SCT120 29/21 A2986 RMK AO2 T02850208
KFET 241715Z AUTO 17004KT 10SM CLR 28/20 A2986 RMK AO2 T02780204
KFET 241655Z AUTO 00000KT 10SM CLR 27/20 A2986 RMK AO2 T02710199
KFET 241635Z AUTO 00000KT 10SM CLR 27/20 A2986 RMK AO2 T02670198
KFET 241615Z AUTO 00000KT 10SM SCT120 26/20 A2986 RMK AO2 T02640195
KFET 241555Z AUTO 23003KT 10SM SCT120 26/19 A2987 RMK AO2 T02600194
KFET 241535Z AUTO 22004KT 10SM BKN120 26/19 A2986 RMK AO2 T02570188
KFET 241515Z AUTO 14004KT 10SM BKN120 25/19 A2985 RMK AO2 T02540192
KFET 241455Z AUTO 00000KT 10SM SCT120 25/18 A2984 RMK AO2 T02450177
KFET 241435Z AUTO 00000KT 10SM SCT120 24/17 A2984 RMK AO2 T02390174
KFET 241415Z AUTO 00000KT 10SM CLR 24/17 A2984 RMK AO2 T02380173
KFET 241355Z AUTO 00000KT 10SM CLR 23/17 A2984 RMK AO2 T02310173
KFET 241335Z AUTO 00000KT 10SM CLR 23/18 A2984 RMK AO2 T02280176
KFET 241315Z AUTO 00000KT 10SM CLR 22/18 A2983 RMK AO2 T02220178
KFET 241255Z AUTO 28005KT 10SM CLR 22/18 A2984 RMK AO2 T02230183
KFET 241235Z AUTO 00000KT 10SM CLR 22/18 A2983 RMK AO2 T02220183
KFET 241215Z AUTO 00000KT 10SM CLR 22/19 A2983 RMK AO2 T02150191
KFET 241155Z AUTO 00000KT 10SM CLR 21/19 A2982 RMK AO2 T02050187 10233 20188
KFET 241135Z AUTO 00000KT 10SM CLR 20/19 A2982 RMK AO2 T01980185
KFET 241115Z AUTO 00000KT 10SM CLR 20/19 A2981 RMK AO2 T01970187
KFET 241055Z AUTO 14003KT 10SM CLR 20/19 A2979 RMK AO2 T01950186
KFET 241035Z AUTO 10004KT 10SM CLR 20/19 A2977 RMK AO2 T02020190
KFET 241015Z AUTO 09004KT 10SM CLR 20/19 A2975 RMK AO2 T02020194
KFET 240955Z AUTO 12006KT 10SM CLR 20/19 A2975 RMK AO2 T02000194
KFET 240935Z AUTO 00000KT 10SM CLR 19/19 A2974 RMK AO2 T01910185
KFET 240915Z AUTO 00000KT 10SM CLR 19/18 A2974 RMK AO2 T01880179
KFET 240855Z AUTO 00000KT 10SM CLR 20/19 A2974 RMK AO2 T01970186
KFET 240835Z AUTO 00000KT 10SM CLR 20/18 A2975 RMK AO2 T02000184
KFET 240815Z AUTO 00000KT 10SM CLR 22/19 A2975 RMK AO2 T02150190
KFET 240755Z AUTO 08004KT 10SM CLR 22/19 A2976 RMK AO2 T02150186
KFET 240735Z AUTO 00000KT 10SM CLR 23/18 A2977 RMK AO2 T02310179
KFET 240715Z AUTO 00000KT 10SM CLR 23/19 A2978 RMK AO2 T02250190
KFET 240655Z AUTO 17004KT 10SM CLR 23/20 A2979 RMK AO2 T02280195
KFET 240635Z AUTO 16006KT 10SM CLR 23/20 A2979 RMK AO2 LTG DSNT S THRU W T02300197
KFET 240615Z AUTO 17006KT 10SM CLR 23/20 A2979 RMK AO2 LTG DSNT SW T02300198
KFET 240555Z AUTO 14006KT 10SM CLR 23/20 A2978 RMK AO2 LTG DSNT SW T02320200 10273 20231 402780165
KFET 240535Z AUTO 14005KT 10SM CLR 23/20 A2979 RMK AO2 LTG DSNT SW AND W T02320201
KFET 240515Z AUTO 14005KT 10SM SCT090 23/20 A2979 RMK AO2 LTG DSNT SW T02320203
KFET 240455Z AUTO 13006KT 10SM SCT090 24/20 A2979 RMK AO2 LTG DSNT SW AND W T02350203
KFET 240435Z AUTO 12007KT 10SM SCT090 24/20 A2978 RMK AO2 T02350203
KFET 240415Z AUTO 11006KT 10SM CLR 24/20 A2978 RMK AO2 T02360203
KFET 240355Z AUTO 12007KT 10SM CLR 24/20 A2978 RMK AO2 LTG DSNT W T02370204
KFET 240335Z AUTO 12007KT 10SM CLR 24/21 A2978 RMK AO2 T02390205
KFET 240315Z AUTO 13006KT 10SM CLR 24/21 A2978 RMK AO2 T02420206
KFET 240255Z AUTO 13006KT 10SM CLR 24/21 A2977 RMK AO2 T02420205
KFET 240235Z AUTO 12006KT 10SM CLR 25/21 A2976 RMK AO2 T02460205
KFET 240215Z AUTO 13007KT 10SM SCT090 25/20 A2976 RMK AO2 LTG DSNT W T02510203
KFET 240155Z AUTO 13008KT 10SM SCT090 25/20 A2976 RMK AO2 T02520203
KFET 240135Z AUTO 12008KT 10SM SCT090 26/20 A2975 RMK AO2 T02560202
KFET 240115Z AUTO 13007KT 10SM CLR 26/20 A2974 RMK AO2 LTG DSNT NW T02630195
KFET 240055Z AUTO 13007KT 10SM SCT120 27/20 A2973 RMK AO2 LTG DSNT NW T02690196
KFET 240035Z AUTO 12007KT 10SM SCT120 27/20 A2974 RMK AO2 T02670196
KFET 240015Z AUTO 13008KT 10SM CLR 27/19 A2973 RMK AO2 LTG DSNT NW T02650192
KFET 232355Z AUTO 12007KT 10SM CLR 28/20 A2973 RMK AO2 T02750197 10278 20224
KFET 232335Z AUTO 13005KT 10SM CLR 28/20 A2973 RMK AO2 T02760201
KFET 232315Z AUTO 14004KT 10SM CLR 26/20 A2973 RMK AO2 T02630195
KFET 232255Z AUTO 14005KT 10SM CLR 26/19 A2974 RMK AO2 LTG DSNT NW T02630192
KFET 232235Z AUTO 16005KT 10SM SCT038 27/19 A2974 RMK AO2 T02650189
KFET 232215Z AUTO 20005KT 10SM SCT036 27/19 A2975 RMK AO2 T02690188
KFET 232155Z AUTO 16004KT 10SM SCT036 28/19 A2975 RMK AO2 LTG DSNT NW T02760190